sensor_id;sensor_type;location;lat;lon;timestamp;temperature;humidity
17728;DHT22;8984;49.268;12.302;2022-12-29T00:05:21;4.30;99.90
17728;DHT22;8984;49.268;12.302;2022-12-29T00:07:47;4.30;99.90
17728;DHT22;8984;49.268;12.302;2022-12-29T00:10:14;4.20;99.90
17728;DHT22;8984;49.268;12.302;2022-12-29T00:12:41;4.20;99.90
17728;DHT22;8984;49.268;12.302;2022-12-29T00:15:25;4.10;99.90
17728;DHT22;8984;49.268;12.302;2022-12-29T00:18:04;4.10;99.90
17728;DHT22;8984;49.268;12.302;2022-12-29T00:20:34;4.30;99.90
17728;DHT22;8984;49.268;12.302;2022-12-29T00:23:19;4.30;99.90
17728;DHT22;8984;49.268;12.302;2022-12-29T00:26:11;4.30;99.90
17728;DHT22;8984;49.268;12.302;2022-12-29T00:28:56;4.30;99.90
17728;DHT22;8984;49.268;12.302;2022-12-29T00:31:40;4.30;99.90
17728;DHT22;8984;49.268;12.302;2022-12-29T00:34:25;4.30;99.90
17728;DHT22;8984;49.268;12.302;2022-12-29T00:37:10;4.30;99.90
17728;DHT22;8984;49.268;12.302;2022-12-29T00:39:37;4.30;99.90
17728;DHT22;8984;49.268;12.302;2022-12-29T00:42:21;4.40;99.90
17728;DHT22;8984;49.268;12.302;2022-12-29T00:45:07;4.30;99.90
17728;DHT22;8984;49.268;12.302;2022-12-29T00:47:33;4.40;99.90
17728;DHT22;8984;49.268;12.302;2022-12-29T00:50:00;4.40;99.90
17728;DHT22;8984;49.268;12.302;2022-12-29T00:52:27;4.40;99.90
17728;DHT22;8984;49.268;12.302;2022-12-29T00:54:54;4.40;99.90
17728;DHT22;8984;49.268;12.302;2022-12-29T00:57:21;4.40;99.90
17728;DHT22;8984;49.268;12.302;2022-12-29T00:59:48;4.40;99.90
17728;DHT22;8984;49.268;12.302;2022-12-29T01:02:14;4.40;99.90
17728;DHT22;8984;49.268;12.302;2022-12-29T01:04:41;4.50;99.90
17728;DHT22;8984;49.268;12.302;2022-12-29T01:07:08;4.50;99.90
17728;DHT22;8984;49.268;12.302;2022-12-29T01:09:36;4.60;99.90
17728;DHT22;8984;49.268;12.302;2022-12-29T01:12:20;4.70;99.90
17728;DHT22;8984;49.268;12.302;2022-12-29T01:15:06;4.80;99.90
17728;DHT22;8984;49.268;12.302;2022-12-29T01:17:33;4.90;99.90
17728;DHT22;8984;49.268;12.302;2022-12-29T01:20:00;5.00;99.90
17728;DHT22;8984;49.268;12.302;2022-12-29T01:22:28;5.10;99.90
17728;DHT22;8984;49.268;12.302;2022-12-29T01:24:56;5.30;99.90
17728;DHT22;8984;49.268;12.302;2022-12-29T01:27:23;5.40;99.90
17728;DHT22;8984;49.268;12.302;2022-12-29T01:29:50;5.50;99.90
17728;DHT22;8984;49.268;12.302;2022-12-29T01:32:17;5.70;99.90
17728;DHT22;8984;49.268;12.302;2022-12-29T01:34:44;5.80;99.90
17728;DHT22;8984;49.268;12.302;2022-12-29T01:37:10;5.90;99.90
17728;DHT22;8984;49.268;12.302;2022-12-29T01:39:37;5.90;99.90
17728;DHT22;8984;49.268;12.302;2022-12-29T01:42:08;5.90;99.90
17728;DHT22;8984;49.268;12.302;2022-12-29T01:44:57;6.00;99.90
17728;DHT22;8984;49.268;12.302;2022-12-29T01:47:31;6.10;99.90
17728;DHT22;8984;49.268;12.302;2022-12-29T01:50:03;6.10;99.90
17728;DHT22;8984;49.268;12.302;2022-12-29T01:52:33;6.20;99.90
17728;DHT22;8984;49.268;12.302;2022-12-29T01:55:02;6.30;99.90
17728;DHT22;8984;49.268;12.302;2022-12-29T01:57:34;6.40;99.90
17728;DHT22;8984;49.268;12.302;2022-12-29T02:00:04;6.50;99.90
17728;DHT22;8984;49.268;12.302;2022-12-29T02:02:33;6.40;99.90
17728;DHT22;8984;49.268;12.302;2022-12-29T02:05:05;6.50;99.90
17728;DHT22;8984;49.268;12.302;2022-12-29T02:07:32;6.60;99.90
17728;DHT22;8984;49.268;12.302;2022-12-29T02:10:00;6.70;99.90
17728;DHT22;8984;49.268;12.302;2022-12-29T02:12:28;6.70;99.90
17728;DHT22;8984;49.268;12.302;2022-12-29T02:15:00;6.70;99.90
17728;DHT22;8984;49.268;12.302;2022-12-29T02:17:38;6.80;99.90
17728;DHT22;8984;49.268;12.302;2022-12-29T02:20:32;6.70;99.90
17728;DHT22;8984;49.268;12.302;2022-12-29T02:23:19;6.70;99.90
17728;DHT22;8984;49.268;12.302;2022-12-29T02:26:16;6.80;99.90
17728;DHT22;8984;49.268;12.302;2022-12-29T02:28:59;6.90;99.90
17728;DHT22;8984;49.268;12.302;2022-12-29T02:31:39;6.80;99.90
17728;DHT22;8984;49.268;12.302;2022-12-29T02:34:14;6.80;99.90
17728;DHT22;8984;49.268;12.302;2022-12-29T02:36:53;6.80;99.90
17728;DHT22;8984;49.268;12.302;2022-12-29T02:39:29;6.80;99.90
17728;DHT22;8984;49.268;12.302;2022-12-29T02:42:03;6.80;99.90
17728;DHT22;8984;49.268;12.302;2022-12-29T02:44:39;6.80;99.90
17728;DHT22;8984;49.268;12.302;2022-12-29T02:47:16;6.80;99.90
17728;DHT22;8984;49.268;12.302;2022-12-29T02:49:51;6.80;99.90
17728;DHT22;8984;49.268;12.302;2022-12-29T02:52:25;6.90;99.90
17728;DHT22;8984;49.268;12.302;2022-12-29T02:54:53;6.80;99.90
17728;DHT22;8984;49.268;12.302;2022-12-29T02:57:30;6.80;99.90
17728;DHT22;8984;49.268;12.302;2022-12-29T03:00:01;6.90;99.90
17728;DHT22;8984;49.268;12.302;2022-12-29T03:05:35;6.80;99.90
17728;DHT22;8984;49.268;12.302;2022-12-29T03:08:12;6.80;99.90
17728;DHT22;8984;49.268;12.302;2022-12-29T03:10:46;6.90;99.90
17728;DHT22;8984;49.268;12.302;2022-12-29T03:13:23;6.90;99.90
17728;DHT22;8984;49.268;12.302;2022-12-29T03:16:14;7.00;99.90
17728;DHT22;8984;49.268;12.302;2022-12-29T03:18:51;7.00;99.90
17728;DHT22;8984;49.268;12.302;2022-12-29T03:21:27;7.10;99.90
17728;DHT22;8984;49.268;12.302;2022-12-29T03:24:11;7.10;99.90
17728;DHT22;8984;49.268;12.302;2022-12-29T03:26:39;7.10;99.90
17728;DHT22;8984;49.268;12.302;2022-12-29T03:29:08;7.10;99.90
17728;DHT22;8984;49.268;12.302;2022-12-29T03:31:37;7.20;99.90
17728;DHT22;8984;49.268;12.302;2022-12-29T03:34:06;7.20;99.90
17728;DHT22;8984;49.268;12.302;2022-12-29T03:36:39;7.20;99.90
17728;DHT22;8984;49.268;12.302;2022-12-29T03:39:10;7.20;99.90
17728;DHT22;8984;49.268;12.302;2022-12-29T03:41:40;7.30;99.90
17728;DHT22;8984;49.268;12.302;2022-12-29T03:44:08;7.30;99.90
17728;DHT22;8984;49.268;12.302;2022-12-29T03:46:36;7.30;99.90
17728;DHT22;8984;49.268;12.302;2022-12-29T03:49:02;7.30;99.90
17728;DHT22;8984;49.268;12.302;2022-12-29T03:51:31;7.30;99.90
17728;DHT22;8984;49.268;12.302;2022-12-29T03:53:57;7.30;99.90
17728;DHT22;8984;49.268;12.302;2022-12-29T03:56:24;7.40;99.90
17728;DHT22;8984;49.268;12.302;2022-12-29T03:58:51;7.40;99.90
17728;DHT22;8984;49.268;12.302;2022-12-29T04:01:18;7.40;99.90
17728;DHT22;8984;49.268;12.302;2022-12-29T04:03:44;7.40;99.90
17728;DHT22;8984;49.268;12.302;2022-12-29T04:06:11;7.40;99.90
17728;DHT22;8984;49.268;12.302;2022-12-29T04:08:39;7.40;99.90
17728;DHT22;8984;49.268;12.302;2022-12-29T04:11:06;7.40;99.90
17728;DHT22;8984;49.268;12.302;2022-12-29T04:13:33;7.30;99.90
17728;DHT22;8984;49.268;12.302;2022-12-29T04:16:00;7.30;99.90
17728;DHT22;8984;49.268;12.302;2022-12-29T04:18:27;7.30;99.90
17728;DHT22;8984;49.268;12.302;2022-12-29T04:20:53;7.40;99.90
17728;DHT22;8984;49.268;12.302;2022-12-29T04:23:28;7.40;99.90
17728;DHT22;8984;49.268;12.302;2022-12-29T04:25:57;7.50;99.90
17728;DHT22;8984;49.268;12.302;2022-12-29T04:28:23;7.50;99.90
17728;DHT22;8984;49.268;12.302;2022-12-29T04:30:50;7.50;99.90
17728;DHT22;8984;49.268;12.302;2022-12-29T04:33:17;7.40;99.90
17728;DHT22;8984;49.268;12.302;2022-12-29T04:35:44;7.50;99.90
17728;DHT22;8984;49.268;12.302;2022-12-29T04:38:11;7.50;99.90
17728;DHT22;8984;49.268;12.302;2022-12-29T04:40:39;7.60;99.90
17728;DHT22;8984;49.268;12.302;2022-12-29T04:43:08;7.60;99.90
17728;DHT22;8984;49.268;12.302;2022-12-29T04:45:35;7.70;99.90
17728;DHT22;8984;49.268;12.302;2022-12-29T04:48:02;7.70;99.90
17728;DHT22;8984;49.268;12.302;2022-12-29T04:50:29;7.70;99.90
17728;DHT22;8984;49.268;12.302;2022-12-29T04:52:56;7.80;99.90
17728;DHT22;8984;49.268;12.302;2022-12-29T04:55:23;7.80;99.90
17728;DHT22;8984;49.268;12.302;2022-12-29T04:57:50;7.80;99.90
17728;DHT22;8984;49.268;12.302;2022-12-29T05:00:18;7.90;99.90
17728;DHT22;8984;49.268;12.302;2022-12-29T05:02:45;7.90;99.90
17728;DHT22;8984;49.268;12.302;2022-12-29T05:05:12;7.90;99.90
17728;DHT22;8984;49.268;12.302;2022-12-29T05:07:39;7.90;99.90
17728;DHT22;8984;49.268;12.302;2022-12-29T05:10:07;7.90;99.90
17728;DHT22;8984;49.268;12.302;2022-12-29T05:12:35;7.90;99.90
17728;DHT22;8984;49.268;12.302;2022-12-29T05:15:03;8.00;99.90
17728;DHT22;8984;49.268;12.302;2022-12-29T05:17:31;7.90;99.90
17728;DHT22;8984;49.268;12.302;2022-12-29T05:19:58;7.90;99.90
17728;DHT22;8984;49.268;12.302;2022-12-29T05:22:25;7.90;99.90
17728;DHT22;8984;49.268;12.302;2022-12-29T05:24:52;7.90;99.90
17728;DHT22;8984;49.268;12.302;2022-12-29T05:27:19;7.90;99.90
17728;DHT22;8984;49.268;12.302;2022-12-29T05:29:46;7.90;99.90
17728;DHT22;8984;49.268;12.302;2022-12-29T05:32:13;7.80;99.90
17728;DHT22;8984;49.268;12.302;2022-12-29T05:34:41;7.90;99.90
17728;DHT22;8984;49.268;12.302;2022-12-29T05:37:07;7.90;99.90
17728;DHT22;8984;49.268;12.302;2022-12-29T05:39:34;7.90;99.90
17728;DHT22;8984;49.268;12.302;2022-12-29T05:42:01;7.90;99.90
17728;DHT22;8984;49.268;12.302;2022-12-29T05:44:27;7.90;99.90
17728;DHT22;8984;49.268;12.302;2022-12-29T05:46:54;7.90;99.90
17728;DHT22;8984;49.268;12.302;2022-12-29T05:49:21;8.00;99.90
17728;DHT22;8984;49.268;12.302;2022-12-29T05:51:49;8.00;99.90
17728;DHT22;8984;49.268;12.302;2022-12-29T05:54:16;8.00;99.90
17728;DHT22;8984;49.268;12.302;2022-12-29T05:56:43;8.00;99.90
17728;DHT22;8984;49.268;12.302;2022-12-29T05:59:09;8.00;99.90
17728;DHT22;8984;49.268;12.302;2022-12-29T06:01:36;8.00;99.90
17728;DHT22;8984;49.268;12.302;2022-12-29T06:04:03;7.90;99.90
17728;DHT22;8984;49.268;12.302;2022-12-29T06:06:30;8.00;99.90
17728;DHT22;8984;49.268;12.302;2022-12-29T06:08:58;8.00;99.90
17728;DHT22;8984;49.268;12.302;2022-12-29T06:11:25;7.90;99.90
17728;DHT22;8984;49.268;12.302;2022-12-29T06:13:52;7.90;99.90
17728;DHT22;8984;49.268;12.302;2022-12-29T06:16:19;7.90;99.90
17728;DHT22;8984;49.268;12.302;2022-12-29T06:18:46;8.00;99.90
17728;DHT22;8984;49.268;12.302;2022-12-29T06:21:13;8.00;99.90
17728;DHT22;8984;49.268;12.302;2022-12-29T06:23:40;8.00;99.90
17728;DHT22;8984;49.268;12.302;2022-12-29T06:26:08;7.90;99.90
17728;DHT22;8984;49.268;12.302;2022-12-29T06:28:35;8.00;99.90
17728;DHT22;8984;49.268;12.302;2022-12-29T06:31:02;8.00;99.90
17728;DHT22;8984;49.268;12.302;2022-12-29T06:33:29;8.00;99.90
17728;DHT22;8984;49.268;12.302;2022-12-29T06:35:56;7.90;99.90
17728;DHT22;8984;49.268;12.302;2022-12-29T06:38:23;7.90;99.90
17728;DHT22;8984;49.268;12.302;2022-12-29T06:40:50;8.00;99.90
17728;DHT22;8984;49.268;12.302;2022-12-29T06:43:18;8.00;99.90
17728;DHT22;8984;49.268;12.302;2022-12-29T06:45:45;7.90;99.90
17728;DHT22;8984;49.268;12.302;2022-12-29T06:48:12;7.90;99.90
17728;DHT22;8984;49.268;12.302;2022-12-29T06:50:38;8.00;99.90
17728;DHT22;8984;49.268;12.302;2022-12-29T06:53:05;8.00;99.90
17728;DHT22;8984;49.268;12.302;2022-12-29T06:55:32;8.00;99.90
17728;DHT22;8984;49.268;12.302;2022-12-29T06:57:59;7.90;99.90
17728;DHT22;8984;49.268;12.302;2022-12-29T07:00:28;8.00;99.90
17728;DHT22;8984;49.268;12.302;2022-12-29T07:02:55;8.00;99.90
17728;DHT22;8984;49.268;12.302;2022-12-29T07:05:23;8.00;99.90
17728;DHT22;8984;49.268;12.302;2022-12-29T07:07:51;7.90;99.90
17728;DHT22;8984;49.268;12.302;2022-12-29T07:10:17;8.00;99.90
17728;DHT22;8984;49.268;12.302;2022-12-29T07:12:44;8.00;99.90
17728;DHT22;8984;49.268;12.302;2022-12-29T07:15:11;7.90;99.90
17728;DHT22;8984;49.268;12.302;2022-12-29T07:17:40;8.00;99.90
17728;DHT22;8984;49.268;12.302;2022-12-29T07:20:08;8.00;99.90
17728;DHT22;8984;49.268;12.302;2022-12-29T07:22:35;8.00;99.90
17728;DHT22;8984;49.268;12.302;2022-12-29T07:25:02;8.00;99.90
17728;DHT22;8984;49.268;12.302;2022-12-29T07:27:29;8.00;99.90
17728;DHT22;8984;49.268;12.302;2022-12-29T07:29:56;8.00;99.90
17728;DHT22;8984;49.268;12.302;2022-12-29T07:32:23;8.00;99.90
17728;DHT22;8984;49.268;12.302;2022-12-29T07:34:51;8.00;99.90
17728;DHT22;8984;49.268;12.302;2022-12-29T07:37:18;8.10;99.90
17728;DHT22;8984;49.268;12.302;2022-12-29T07:39:45;8.10;99.90
17728;DHT22;8984;49.268;12.302;2022-12-29T07:42:12;8.00;99.90
17728;DHT22;8984;49.268;12.302;2022-12-29T07:44:39;8.10;99.90
17728;DHT22;8984;49.268;12.302;2022-12-29T07:47:06;8.10;99.90
17728;DHT22;8984;49.268;12.302;2022-12-29T07:49:33;8.10;99.90
17728;DHT22;8984;49.268;12.302;2022-12-29T07:52:01;8.10;99.90
17728;DHT22;8984;49.268;12.302;2022-12-29T07:54:28;8.10;99.90
17728;DHT22;8984;49.268;12.302;2022-12-29T07:56:54;8.10;99.90
17728;DHT22;8984;49.268;12.302;2022-12-29T07:59:22;8.00;99.90
17728;DHT22;8984;49.268;12.302;2022-12-29T08:01:49;8.20;99.90
17728;DHT22;8984;49.268;12.302;2022-12-29T08:04:16;8.10;99.90
17728;DHT22;8984;49.268;12.302;2022-12-29T08:06:43;8.10;99.90
17728;DHT22;8984;49.268;12.302;2022-12-29T08:09:12;8.20;99.90
17728;DHT22;8984;49.268;12.302;2022-12-29T08:11:39;8.20;99.90
17728;DHT22;8984;49.268;12.302;2022-12-29T08:14:06;8.20;99.90
17728;DHT22;8984;49.268;12.302;2022-12-29T08:16:33;8.30;99.90
17728;DHT22;8984;49.268;12.302;2022-12-29T08:19:00;8.30;99.90
17728;DHT22;8984;49.268;12.302;2022-12-29T08:21:28;8.40;99.90
17728;DHT22;8984;49.268;12.302;2022-12-29T08:23:55;8.40;99.90
17728;DHT22;8984;49.268;12.302;2022-12-29T08:26:23;8.50;99.90
17728;DHT22;8984;49.268;12.302;2022-12-29T08:28:52;8.50;99.90
17728;DHT22;8984;49.268;12.302;2022-12-29T08:31:20;8.60;99.90
17728;DHT22;8984;49.268;12.302;2022-12-29T08:33:47;8.70;99.90
17728;DHT22;8984;49.268;12.302;2022-12-29T08:36:13;8.70;99.90
17728;DHT22;8984;49.268;12.302;2022-12-29T08:38:41;8.60;99.90
17728;DHT22;8984;49.268;12.302;2022-12-29T08:41:08;8.70;99.90
17728;DHT22;8984;49.268;12.302;2022-12-29T08:43:36;8.60;99.90
17728;DHT22;8984;49.268;12.302;2022-12-29T08:46:03;8.70;99.90
17728;DHT22;8984;49.268;12.302;2022-12-29T08:48:30;8.90;99.90
17728;DHT22;8984;49.268;12.302;2022-12-29T08:50:57;8.90;99.90
17728;DHT22;8984;49.268;12.302;2022-12-29T08:53:24;8.90;99.90
17728;DHT22;8984;49.268;12.302;2022-12-29T08:55:55;8.90;99.90
17728;DHT22;8984;49.268;12.302;2022-12-29T08:58:23;8.90;99.90
17728;DHT22;8984;49.268;12.302;2022-12-29T09:00:52;9.00;99.90
17728;DHT22;8984;49.268;12.302;2022-12-29T09:03:19;9.00;99.90
17728;DHT22;8984;49.268;12.302;2022-12-29T09:05:47;9.10;99.90
17728;DHT22;8984;49.268;12.302;2022-12-29T09:08:14;9.00;99.90
17728;DHT22;8984;49.268;12.302;2022-12-29T09:10:41;9.10;99.90
17728;DHT22;8984;49.268;12.302;2022-12-29T09:13:08;9.10;99.90
17728;DHT22;8984;49.268;12.302;2022-12-29T09:15:35;9.10;99.90
17728;DHT22;8984;49.268;12.302;2022-12-29T09:18:04;9.10;99.90
17728;DHT22;8984;49.268;12.302;2022-12-29T09:20:31;9.10;99.90
17728;DHT22;8984;49.268;12.302;2022-12-29T09:22:59;9.10;99.90
17728;DHT22;8984;49.268;12.302;2022-12-29T09:25:26;9.20;99.90
17728;DHT22;8984;49.268;12.302;2022-12-29T09:27:53;9.30;99.90
17728;DHT22;8984;49.268;12.302;2022-12-29T09:30:21;9.20;99.90
17728;DHT22;8984;49.268;12.302;2022-12-29T09:32:49;9.40;99.90
17728;DHT22;8984;49.268;12.302;2022-12-29T09:35:17;9.20;99.90
17728;DHT22;8984;49.268;12.302;2022-12-29T09:37:44;9.30;99.90
17728;DHT22;8984;49.268;12.302;2022-12-29T09:40:25;9.30;99.90
17728;DHT22;8984;49.268;12.302;2022-12-29T09:43:04;9.50;99.90
17728;DHT22;8984;49.268;12.302;2022-12-29T09:45:35;9.60;99.90
17728;DHT22;8984;49.268;12.302;2022-12-29T09:48:07;9.60;99.90
17728;DHT22;8984;49.268;12.302;2022-12-29T09:50:40;9.60;99.90
17728;DHT22;8984;49.268;12.302;2022-12-29T09:53:15;9.80;99.90
17728;DHT22;8984;49.268;12.302;2022-12-29T09:55:48;9.70;99.90
17728;DHT22;8984;49.268;12.302;2022-12-29T09:58:19;9.90;99.90
17728;DHT22;8984;49.268;12.302;2022-12-29T10:00:52;9.80;99.90
17728;DHT22;8984;49.268;12.302;2022-12-29T10:03:22;9.80;99.90
17728;DHT22;8984;49.268;12.302;2022-12-29T10:05:56;9.80;99.90
17728;DHT22;8984;49.268;12.302;2022-12-29T10:08:32;9.70;99.90
17728;DHT22;8984;49.268;12.302;2022-12-29T10:11:07;9.90;99.90
17728;DHT22;8984;49.268;12.302;2022-12-29T10:13:46;9.90;99.90
17728;DHT22;8984;49.268;12.302;2022-12-29T10:16:20;10.00;99.90
17728;DHT22;8984;49.268;12.302;2022-12-29T10:19:00;10.10;99.90
17728;DHT22;8984;49.268;12.302;2022-12-29T10:21:43;10.00;99.90
17728;DHT22;8984;49.268;12.302;2022-12-29T10:24:13;10.10;99.90
17728;DHT22;8984;49.268;12.302;2022-12-29T10:26:42;10.20;99.90
17728;DHT22;8984;49.268;12.302;2022-12-29T10:29:15;10.30;99.90
17728;DHT22;8984;49.268;12.302;2022-12-29T10:31:45;10.20;99.90
17728;DHT22;8984;49.268;12.302;2022-12-29T10:34:20;10.40;99.90
17728;DHT22;8984;49.268;12.302;2022-12-29T10:36:53;10.50;99.90
17728;DHT22;8984;49.268;12.302;2022-12-29T10:39:28;10.60;99.90
17728;DHT22;8984;49.268;12.302;2022-12-29T10:42:01;10.70;99.90
17728;DHT22;8984;49.268;12.302;2022-12-29T10:44:31;10.80;99.90
17728;DHT22;8984;49.268;12.302;2022-12-29T10:47:03;10.80;99.90
17728;DHT22;8984;49.268;12.302;2022-12-29T10:49:32;10.80;99.90
17728;DHT22;8984;49.268;12.302;2022-12-29T10:52:03;11.00;99.90
17728;DHT22;8984;49.268;12.302;2022-12-29T10:54:35;11.10;99.90
17728;DHT22;8984;49.268;12.302;2022-12-29T10:57:08;11.10;99.90
17728;DHT22;8984;49.268;12.302;2022-12-29T10:59:37;11.20;99.90
17728;DHT22;8984;49.268;12.302;2022-12-29T11:02:20;11.50;99.90
17728;DHT22;8984;49.268;12.302;2022-12-29T11:04:55;11.60;99.90
17728;DHT22;8984;49.268;12.302;2022-12-29T11:07:25;11.70;99.90
17728;DHT22;8984;49.268;12.302;2022-12-29T11:09:52;11.80;99.90
17728;DHT22;8984;49.268;12.302;2022-12-29T11:12:23;12.00;99.90
17728;DHT22;8984;49.268;12.302;2022-12-29T11:15:12;12.10;99.90
17728;DHT22;8984;49.268;12.302;2022-12-29T11:17:44;12.00;99.90
17728;DHT22;8984;49.268;12.302;2022-12-29T11:20:32;12.10;99.90
17728;DHT22;8984;49.268;12.302;2022-12-29T11:23:01;12.10;99.90
17728;DHT22;8984;49.268;12.302;2022-12-29T11:25:29;12.00;99.90
17728;DHT22;8984;49.268;12.302;2022-12-29T11:27:57;12.10;99.90
17728;DHT22;8984;49.268;12.302;2022-12-29T11:30:27;12.30;99.90
17728;DHT22;8984;49.268;12.302;2022-12-29T11:32:55;12.30;99.90
17728;DHT22;8984;49.268;12.302;2022-12-29T11:35:31;12.20;99.90
17728;DHT22;8984;49.268;12.302;2022-12-29T11:37:59;12.30;99.90
17728;DHT22;8984;49.268;12.302;2022-12-29T11:40:28;12.40;99.90
17728;DHT22;8984;49.268;12.302;2022-12-29T11:42:57;12.50;99.90
17728;DHT22;8984;49.268;12.302;2022-12-29T11:45:29;12.50;99.90
17728;DHT22;8984;49.268;12.302;2022-12-29T11:47:59;12.50;99.90
17728;DHT22;8984;49.268;12.302;2022-12-29T11:50:30;12.40;99.90
17728;DHT22;8984;49.268;12.302;2022-12-29T11:52:59;12.40;99.90
17728;DHT22;8984;49.268;12.302;2022-12-29T11:55:29;12.40;99.90
17728;DHT22;8984;49.268;12.302;2022-12-29T11:57:58;12.40;99.90
17728;DHT22;8984;49.268;12.302;2022-12-29T12:00:31;12.20;99.90
17728;DHT22;8984;49.268;12.302;2022-12-29T12:03:00;12.30;99.90
17728;DHT22;8984;49.268;12.302;2022-12-29T12:05:36;12.20;99.90
17728;DHT22;8984;49.268;12.302;2022-12-29T12:08:11;12.50;99.90
17728;DHT22;8984;49.268;12.302;2022-12-29T12:10:44;12.60;99.90
17728;DHT22;8984;49.268;12.302;2022-12-29T12:13:19;12.60;99.90
17728;DHT22;8984;49.268;12.302;2022-12-29T12:15:52;12.60;99.90
17728;DHT22;8984;49.268;12.302;2022-12-29T12:18:28;12.70;99.90
17728;DHT22;8984;49.268;12.302;2022-12-29T12:21:03;12.60;99.90
17728;DHT22;8984;49.268;12.302;2022-12-29T12:23:38;12.50;99.90
17728;DHT22;8984;49.268;12.302;2022-12-29T12:26:12;12.60;99.90
17728;DHT22;8984;49.268;12.302;2022-12-29T12:28:48;12.60;99.90
17728;DHT22;8984;49.268;12.302;2022-12-29T12:31:22;12.70;99.90
17728;DHT22;8984;49.268;12.302;2022-12-29T12:33:56;12.90;99.90
17728;DHT22;8984;49.268;12.302;2022-12-29T12:36:45;13.00;99.90
17728;DHT22;8984;49.268;12.302;2022-12-29T12:39:24;13.10;99.90
17728;DHT22;8984;49.268;12.302;2022-12-29T12:42:04;13.10;99.90
17728;DHT22;8984;49.268;12.302;2022-12-29T12:44:42;13.20;99.90
17728;DHT22;8984;49.268;12.302;2022-12-29T12:50:16;13.00;99.90
17728;DHT22;8984;49.268;12.302;2022-12-29T12:53:00;13.00;99.90
17728;DHT22;8984;49.268;12.302;2022-12-29T12:55:49;13.00;99.90
17728;DHT22;8984;49.268;12.302;2022-12-29T12:58:32;13.10;99.90
17728;DHT22;8984;49.268;12.302;2022-12-29T13:01:11;12.90;99.90
17728;DHT22;8984;49.268;12.302;2022-12-29T13:03:56;12.90;99.90
17728;DHT22;8984;49.268;12.302;2022-12-29T13:06:36;12.90;99.90
17728;DHT22;8984;49.268;12.302;2022-12-29T13:09:25;12.90;99.90
17728;DHT22;8984;49.268;12.302;2022-12-29T13:12:03;13.00;99.90
17728;DHT22;8984;49.268;12.302;2022-12-29T13:14:43;12.90;99.90
17728;DHT22;8984;49.268;12.302;2022-12-29T13:17:18;13.00;99.90
17728;DHT22;8984;49.268;12.302;2022-12-29T13:19:49;13.00;99.90
17728;DHT22;8984;49.268;12.302;2022-12-29T13:22:23;13.00;99.90
17728;DHT22;8984;49.268;12.302;2022-12-29T13:25:01;13.00;99.90
17728;DHT22;8984;49.268;12.302;2022-12-29T13:27:36;13.10;99.90
17728;DHT22;8984;49.268;12.302;2022-12-29T13:30:10;13.10;99.90
17728;DHT22;8984;49.268;12.302;2022-12-29T13:32:49;13.20;99.90
17728;DHT22;8984;49.268;12.302;2022-12-29T13:35:32;13.20;99.90
17728;DHT22;8984;49.268;12.302;2022-12-29T13:38:08;13.20;99.90
17728;DHT22;8984;49.268;12.302;2022-12-29T13:40:39;13.20;99.90
17728;DHT22;8984;49.268;12.302;2022-12-29T13:43:08;13.10;99.90
17728;DHT22;8984;49.268;12.302;2022-12-29T13:45:37;13.10;99.90
17728;DHT22;8984;49.268;12.302;2022-12-29T13:48:12;13.20;99.90
17728;DHT22;8984;49.268;12.302;2022-12-29T13:50:41;13.40;99.90
17728;DHT22;8984;49.268;12.302;2022-12-29T13:53:18;13.30;99.90
17728;DHT22;8984;49.268;12.302;2022-12-29T13:55:51;13.30;99.90
17728;DHT22;8984;49.268;12.302;2022-12-29T13:58:26;13.30;99.90
17728;DHT22;8984;49.268;12.302;2022-12-29T14:01:03;13.30;99.90
17728;DHT22;8984;49.268;12.302;2022-12-29T14:03:49;13.20;99.90
17728;DHT22;8984;49.268;12.302;2022-12-29T14:06:26;13.20;99.90
17728;DHT22;8984;49.268;12.302;2022-12-29T14:08:55;13.20;99.90
17728;DHT22;8984;49.268;12.302;2022-12-29T14:11:28;13.00;99.90
17728;DHT22;8984;49.268;12.302;2022-12-29T14:13:56;13.00;99.90
17728;DHT22;8984;49.268;12.302;2022-12-29T14:16:28;12.90;99.90
17728;DHT22;8984;49.268;12.302;2022-12-29T14:19:03;12.80;99.90
17728;DHT22;8984;49.268;12.302;2022-12-29T14:21:30;12.70;99.90
17728;DHT22;8984;49.268;12.302;2022-12-29T14:33:25;12.40;99.90
17728;DHT22;8984;49.268;12.302;2022-12-29T14:35:53;12.30;99.90
17728;DHT22;8984;49.268;12.302;2022-12-29T14:38:28;12.20;99.90
17728;DHT22;8984;49.268;12.302;2022-12-29T14:41:15;12.30;99.90
17728;DHT22;8984;49.268;12.302;2022-12-29T14:43:56;12.30;99.90
17728;DHT22;8984;49.268;12.302;2022-12-29T14:46:23;12.20;99.90
17728;DHT22;8984;49.268;12.302;2022-12-29T14:48:56;12.10;99.90
17728;DHT22;8984;49.268;12.302;2022-12-29T14:51:36;12.00;99.90
17728;DHT22;8984;49.268;12.302;2022-12-29T14:57:06;12.00;99.90
17728;DHT22;8984;49.268;12.302;2022-12-29T14:59:34;11.90;99.90
17728;DHT22;8984;49.268;12.302;2022-12-29T15:02:05;12.00;99.90
17728;DHT22;8984;49.268;12.302;2022-12-29T15:04:39;12.00;99.90
17728;DHT22;8984;49.268;12.302;2022-12-29T15:07:08;11.90;99.90
17728;DHT22;8984;49.268;12.302;2022-12-29T15:09:37;11.90;99.90
17728;DHT22;8984;49.268;12.302;2022-12-29T15:12:15;11.90;99.90
17728;DHT22;8984;49.268;12.302;2022-12-29T15:14:50;11.80;99.90
17728;DHT22;8984;49.268;12.302;2022-12-29T15:17:25;11.90;99.90
17728;DHT22;8984;49.268;12.302;2022-12-29T15:19:54;11.70;99.90
17728;DHT22;8984;49.268;12.302;2022-12-29T15:22:21;11.70;99.90
17728;DHT22;8984;49.268;12.302;2022-12-29T15:24:50;11.70;99.90
17728;DHT22;8984;49.268;12.302;2022-12-29T15:27:21;11.60;99.90
17728;DHT22;8984;49.268;12.302;2022-12-29T15:29:55;11.70;99.90
17728;DHT22;8984;49.268;12.302;2022-12-29T15:32:24;11.60;99.90
17728;DHT22;8984;49.268;12.302;2022-12-29T15:34:54;11.60;99.90
17728;DHT22;8984;49.268;12.302;2022-12-29T15:37:23;11.60;99.90
17728;DHT22;8984;49.268;12.302;2022-12-29T15:39:52;11.50;99.90
17728;DHT22;8984;49.268;12.302;2022-12-29T15:42:39;11.40;99.90
17728;DHT22;8984;49.268;12.302;2022-12-29T15:45:13;11.50;99.90
17728;DHT22;8984;49.268;12.302;2022-12-29T15:47:43;11.60;99.90
17728;DHT22;8984;49.268;12.302;2022-12-29T15:50:21;11.40;99.90
17728;DHT22;8984;49.268;12.302;2022-12-29T15:52:49;11.40;99.90
17728;DHT22;8984;49.268;12.302;2022-12-29T15:55:20;11.40;99.90
17728;DHT22;8984;49.268;12.302;2022-12-29T15:57:48;11.40;99.90
17728;DHT22;8984;49.268;12.302;2022-12-29T16:00:22;11.30;99.90
17728;DHT22;8984;49.268;12.302;2022-12-29T16:02:51;11.30;99.90
17728;DHT22;8984;49.268;12.302;2022-12-29T16:05:20;11.40;99.90
17728;DHT22;8984;49.268;12.302;2022-12-29T16:07:53;11.30;99.90
17728;DHT22;8984;49.268;12.302;2022-12-29T16:10:26;11.30;99.90
17728;DHT22;8984;49.268;12.302;2022-12-29T16:12:54;11.20;99.90
17728;DHT22;8984;49.268;12.302;2022-12-29T16:15:21;11.30;99.90
17728;DHT22;8984;49.268;12.302;2022-12-29T16:17:53;11.20;99.90
17728;DHT22;8984;49.268;12.302;2022-12-29T16:20:25;11.10;99.90
17728;DHT22;8984;49.268;12.302;2022-12-29T16:22:56;11.10;99.90
17728;DHT22;8984;49.268;12.302;2022-12-29T16:25:27;11.20;99.90
17728;DHT22;8984;49.268;12.302;2022-12-29T16:27:54;11.10;99.90